Time;durP1;ratioP1;P1;durP2;ratioP2;P2;SDS_P1;SDS_P2;PMS_P1;PMS_P2;Temp;Humidity;BMP_temperature;BMP_pressure;BME280_temperature;BME280_humidity;BME280_pressure;Samples;Min_cycle;Max_cycle;Signal;HPM_P1;HPM_P2
2023/08/26 00:00:00;;;;;;;1.30;1.10;;;17.00;99.90;;;;;;5052353;28;20186;-88
2023/08/26 00:02:26;;;;;;;1.20;1.10;;;17.00;99.90;;;;;;5035182;28;20819;-88
2023/08/26 00:04:52;;;;;;;4.43;1.20;;;16.90;99.90;;;;;;5035104;28;20221;-90
2023/08/26 00:07:17;;;;;;;1.47;1.20;;;16.90;99.90;;;;;;5051280;28;20347;-89
2023/08/26 00:09:43;;;;;;;1.43;1.33;;;16.90;99.90;;;;;;5034529;28;20213;-87
2023/08/26 00:12:09;;;;;;;1.93;1.60;;;16.80;99.90;;;;;;5034063;28;20682;-89
2023/08/26 00:14:35;;;;;;;1.47;1.37;;;16.80;99.90;;;;;;5034759;28;20196;-88
2023/08/26 00:17:01;;;;;;;1.97;1.30;;;16.80;99.90;;;;;;5034454;28;20232;-89
2023/08/26 00:19:26;;;;;;;8.70;1.60;;;16.70;99.90;;;;;;5068521;28;20255;-88
2023/08/26 00:21:52;;;;;;;1.77;1.37;;;16.60;99.90;;;;;;5051979;28;20243;-88
2023/08/26 00:24:19;;;;;;;1.57;1.47;;;16.60;99.90;;;;;;5051349;28;20181;-89
2023/08/26 00:26:45;;;;;;;4.17;1.70;;;16.60;99.90;;;;;;5085286;28;20182;-87
2023/08/26 00:29:11;;;;;;;1.80;1.57;;;16.50;99.90;;;;;;5034410;28;20599;-87
2023/08/26 00:31:37;;;;;;;2.70;1.57;;;16.50;99.90;;;;;;5034469;28;20225;-87
2023/08/26 00:34:03;;;;;;;0.67;0.63;;;16.50;99.90;;;;;;5034554;28;20296;-87
2023/08/26 00:36:30;;;;;;;5.10;1.57;;;16.40;99.90;;;;;;5034774;28;20291;-89
2023/08/26 00:38:57;;;;;;;2.27;1.27;;;16.40;99.90;;;;;;5034727;28;20237;-87
2023/08/26 00:41:23;;;;;;;0.83;0.80;;;16.40;99.90;;;;;;5051073;28;20228;-88
2023/08/26 00:43:48;;;;;;;5.13;1.33;;;16.30;99.90;;;;;;5068959;28;20212;-89
2023/08/26 00:46:14;;;;;;;2.07;0.97;;;16.30;99.90;;;;;;5050618;28;20219;-89
2023/08/26 00:48:41;;;;;;;0.70;0.70;;;16.30;99.90;;;;;;5051079;28;20213;-89
2023/08/26 00:51:07;;;;;;;0.90;0.90;;;16.30;99.90;;;;;;5034463;28;20243;-87
2023/08/26 00:53:33;;;;;;;1.53;1.30;;;16.30;99.90;;;;;;5034979;28;20622;-87
2023/08/26 00:56:00;;;;;;;2.00;0.80;;;16.20;99.90;;;;;;5068771;28;20205;-90
2023/08/26 00:58:27;;;;;;;1.33;1.23;;;16.20;99.90;;;;;;5051007;28;20228;-89
2023/08/26 01:00:53;;;;;;;1.27;1.10;;;16.20;99.90;;;;;;5034204;28;20289;-87
2023/08/26 01:03:20;;;;;;;0.83;0.83;;;16.10;99.90;;;;;;5034571;28;20177;-88
2023/08/26 01:05:46;;;;;;;1.40;1.30;;;16.10;99.90;;;;;;5034937;28;20530;-89
2023/08/26 01:08:13;;;;;;;0.80;0.80;;;16.00;99.90;;;;;;5033920;28;20209;-87
2023/08/26 01:10:57;;;;;;;1.13;0.90;;;16.00;99.90;;;;;;5034144;28;20713;-88
2023/08/26 01:13:58;;;;;;;1.40;1.30;;;16.00;99.90;;;;;;5050362;28;20261;-88
2023/08/26 01:16:25;;;;;;;4.93;0.90;;;15.90;99.90;;;;;;5036419;28;20272;-85
2023/08/26 01:18:52;;;;;;;0.93;0.90;;;15.90;99.90;;;;;;5034309;28;20225;-87
2023/08/26 01:21:21;;;;;;;0.97;0.80;;;15.80;99.90;;;;;;5082751;28;20189;-88
2023/08/26 01:23:47;;;;;;;3.43;0.90;;;15.70;99.90;;;;;;5051718;28;20185;-87
2023/08/26 01:26:16;;;;;;;1.53;0.73;;;15.60;99.90;;;;;;5050713;28;20217;-85
2023/08/26 01:28:42;;;;;;;0.70;0.70;;;15.50;99.90;;;;;;5050598;28;20213;-87
2023/08/26 01:31:13;;;;;;;0.53;0.53;;;15.50;99.90;;;;;;5050109;28;20209;-87
2023/08/26 01:33:57;;;;;;;0.73;0.50;;;15.50;99.90;;;;;;5070568;28;20308;-88
2023/08/26 01:36:25;;;;;;;1.60;0.70;;;15.50;99.90;;;;;;5054161;28;20169;-87
2023/08/26 01:38:54;;;;;;;0.63;0.40;;;15.60;99.90;;;;;;5038471;28;20185;-88
2023/08/26 01:41:21;;;;;;;0.50;0.50;;;15.60;99.90;;;;;;5054479;28;20217;-89
2023/08/26 01:43:48;;;;;;;0.70;0.70;;;15.60;99.90;;;;;;5071064;28;20359;-87
2023/08/26 01:46:17;;;;;;;0.73;0.73;;;15.60;99.90;;;;;;5043100;28;20956;-89
2023/08/26 01:48:43;;;;;;;0.80;0.60;;;15.50;99.90;;;;;;5061701;28;20235;-87
2023/08/26 01:51:10;;;;;;;1.70;0.90;;;15.50;99.90;;;;;;5044082;28;20204;-88
2023/08/26 01:53:35;;;;;;;1.03;0.80;;;15.50;99.90;;;;;;5061510;28;20182;-87
2023/08/26 01:56:01;;;;;;;0.77;0.77;;;15.50;99.90;;;;;;5043638;28;20276;-85
2023/08/26 01:58:27;;;;;;;5.87;1.40;;;15.50;99.90;;;;;;5043600;28;20227;-89
2023/08/26 02:00:53;;;;;;;3.33;0.83;;;15.40;99.90;;;;;;5091690;28;20224;-90
2023/08/26 02:03:18;;;;;;;0.50;0.50;;;15.40;99.90;;;;;;5037415;28;20189;-89
2023/08/26 02:05:44;;;;;;;0.60;0.60;;;15.40;99.90;;;;;;5038127;28;20618;-87
2023/08/26 02:08:10;;;;;;;0.77;0.77;;;15.40;99.90;;;;;;5037194;28;20217;-86
2023/08/26 02:10:35;;;;;;;1.10;1.00;;;15.30;99.90;;;;;;5053554;28;20237;-87
2023/08/26 02:13:01;;;;;;;0.90;0.90;;;15.20;99.90;;;;;;5053164;28;20229;-86
2023/08/26 02:15:27;;;;;;;4.00;0.93;;;15.10;99.90;;;;;;5037128;28;20549;-87
2023/08/26 02:17:53;;;;;;;0.73;0.60;;;15.10;99.90;;;;;;5037802;28;20181;-87
2023/08/26 02:20:18;;;;;;;0.87;0.80;;;15.00;99.90;;;;;;5040669;28;20666;-88
2023/08/26 02:22:44;;;;;;;1.17;1.00;;;15.00;99.90;;;;;;5038658;28;20221;-88
2023/08/26 02:25:10;;;;;;;2.83;1.00;;;14.90;99.90;;;;;;5036458;28;20217;-88
2023/08/26 02:27:36;;;;;;;1.23;1.03;;;14.90;99.90;;;;;;5053270;28;20278;-90
2023/08/26 02:30:02;;;;;;;1.00;0.70;;;14.80;99.90;;;;;;5054147;28;20177;-88
2023/08/26 02:32:28;;;;;;;3.03;1.30;;;14.70;99.90;;;;;;5053187;28;20256;-88
2023/08/26 02:34:54;;;;;;;0.83;0.83;;;14.70;99.90;;;;;;5036753;28;20275;-87
2023/08/26 02:37:21;;;;;;;3.30;1.60;;;14.60;99.90;;;;;;5086072;28;20560;-86
2023/08/26 02:39:47;;;;;;;2.00;1.10;;;14.60;99.90;;;;;;5036691;28;20342;-87
2023/08/26 02:42:12;;;;;;;0.80;0.57;;;14.60;99.90;;;;;;5036039;28;20665;-86
2023/08/26 02:44:38;;;;;;;0.80;0.70;;;14.60;99.90;;;;;;5053196;28;20177;-86
2023/08/26 02:47:04;;;;;;;1.27;1.10;;;14.50;99.90;;;;;;5036010;28;20823;-85
2023/08/26 02:49:30;;;;;;;1.47;1.10;;;14.50;99.90;;;;;;5052537;28;20219;-87
2023/08/26 02:51:55;;;;;;;3.03;1.07;;;14.50;99.90;;;;;;5035792;28;20236;-87
2023/08/26 02:54:21;;;;;;;1.17;1.07;;;14.50;99.90;;;;;;5052520;28;20181;-87
2023/08/26 02:56:47;;;;;;;1.40;1.30;;;14.50;99.90;;;;;;5036850;28;20522;-86
2023/08/26 02:59:13;;;;;;;4.63;1.50;;;14.40;99.90;;;;;;5035542;28;20236;-87
2023/08/26 03:01:39;;;;;;;1.10;1.00;;;14.40;99.90;;;;;;5035896;28;20690;-86
2023/08/26 03:04:05;;;;;;;2.67;1.40;;;14.40;99.90;;;;;;5052055;28;20290;-84
2023/08/26 03:06:30;;;;;;;1.87;0.90;;;14.40;99.90;;;;;;5069729;28;20651;-88
2023/08/26 03:08:56;;;;;;;1.30;1.20;;;14.40;99.90;;;;;;5037043;28;20536;-86
2023/08/26 03:11:22;;;;;;;2.00;1.07;;;14.40;99.90;;;;;;5035333;28;20247;-87
2023/08/26 03:13:49;;;;;;;1.67;1.10;;;14.40;99.90;;;;;;5052208;28;20237;-86
2023/08/26 03:16:15;;;;;;;1.00;1.00;;;14.40;99.90;;;;;;5069940;28;20213;-89
2023/08/26 03:18:41;;;;;;;2.53;1.47;;;14.40;99.90;;;;;;5052133;28;20745;-87
2023/08/26 03:21:09;;;;;;;1.23;1.00;;;14.40;99.90;;;;;;5050683;28;20723;-88
2023/08/26 03:23:40;;;;;;;1.13;1.03;;;14.40;99.90;;;;;;5052834;28;20231;-89
2023/08/26 03:26:06;;;;;;;1.07;1.00;;;14.40;99.90;;;;;;5036308;28;20290;-86
2023/08/26 03:28:32;;;;;;;0.80;0.80;;;14.40;99.90;;;;;;5052036;28;20254;-92
2023/08/26 03:31:04;;;;;;;1.30;1.13;;;14.30;99.90;;;;;;5069489;28;20209;-92
2023/08/26 03:33:30;;;;;;;1.47;1.30;;;14.30;99.90;;;;;;5051663;28;20721;-87
2023/08/26 03:35:56;;;;;;;1.50;1.40;;;14.30;99.90;;;;;;5035280;28;20169;-88
2023/08/26 03:38:21;;;;;;;1.50;1.33;;;14.20;99.90;;;;;;5050808;28;20678;-86
2023/08/26 03:40:47;;;;;;;3.40;1.20;;;14.20;99.90;;;;;;5033898;28;20213;-85
2023/08/26 03:43:13;;;;;;;2.07;1.87;;;14.20;99.90;;;;;;5050725;28;20819;-86
2023/08/26 03:45:39;;;;;;;6.80;1.77;;;14.10;99.90;;;;;;5033788;28;20213;-87
2023/08/26 03:48:05;;;;;;;1.63;1.47;;;14.10;99.90;;;;;;5050565;28;20247;-84
2023/08/26 03:50:31;;;;;;;3.30;1.30;;;14.10;99.90;;;;;;5034588;28;20805;-85
2023/08/26 03:52:56;;;;;;;1.43;1.33;;;14.10;99.90;;;;;;5033781;28;20748;-85
2023/08/26 03:55:22;;;;;;;12.50;1.50;;;14.10;99.90;;;;;;5066312;28;20666;-85
2023/08/26 03:57:48;;;;;;;2.13;1.93;;;14.00;99.90;;;;;;5067036;28;20239;-86
2023/08/26 04:00:14;;;;;;;4.30;1.60;;;14.00;99.90;;;;;;5050359;28;20264;-84
2023/08/26 04:02:40;;;;;;;2.37;1.60;;;14.00;99.90;;;;;;5034894;28;20264;-86
2023/08/26 04:05:06;;;;;;;4.00;1.53;;;14.00;99.90;;;;;;5067099;28;20225;-87
2023/08/26 04:07:32;;;;;;;1.77;1.30;;;13.90;99.90;;;;;;5050259;28;20299;-83
2023/08/26 04:09:58;;;;;;;3.03;1.80;;;13.90;99.90;;;;;;5033914;28;20658;-87
2023/08/26 04:12:23;;;;;;;1.37;1.23;;;13.90;99.90;;;;;;5067064;28;20271;-85
2023/08/26 04:14:49;;;;;;;2.27;1.40;;;13.90;99.90;;;;;;5050859;28;20181;-86
2023/08/26 04:17:15;;;;;;;1.20;1.10;;;13.90;99.90;;;;;;5050082;28;20216;-84
2023/08/26 04:19:40;;;;;;;1.93;1.40;;;13.90;99.90;;;;;;5050469;28;20322;-85
2023/08/26 04:22:07;;;;;;;3.17;1.40;;;13.80;99.90;;;;;;5033522;28;20213;-86
2023/08/26 04:24:33;;;;;;;1.80;1.30;;;13.80;99.90;;;;;;5049962;28;20212;-84
2023/08/26 04:26:59;;;;;;;2.63;2.13;;;13.90;99.90;;;;;;5050800;28;20182;-85
2023/08/26 04:29:24;;;;;;;3.80;1.93;;;13.90;99.90;;;;;;5032899;28;20212;-84
2023/08/26 04:31:50;;;;;;;2.10;1.47;;;13.90;99.90;;;;;;5049941;28;20732;-86
2023/08/26 04:34:16;;;;;;;2.53;1.90;;;13.90;99.90;;;;;;5049701;28;20220;-87
2023/08/26 04:36:41;;;;;;;3.30;1.83;;;13.80;99.90;;;;;;5066947;28;20282;-86
2023/08/26 04:39:11;;;;;;;3.07;1.83;;;13.80;99.90;;;;;;5066070;28;20232;-87
2023/08/26 04:41:38;;;;;;;1.57;1.37;;;13.70;99.90;;;;;;5068511;28;20209;-86
2023/08/26 04:44:05;;;;;;;1.87;1.17;;;13.60;99.90;;;;;;5033353;28;20227;-87
2023/08/26 04:46:31;;;;;;;1.33;1.20;;;13.40;99.90;;;;;;5067608;28;20301;-83
2023/08/26 04:48:57;;;;;;;3.53;1.50;;;13.30;99.90;;;;;;5050131;28;20666;-88
2023/08/26 04:51:22;;;;;;;2.43;1.37;;;13.30;99.90;;;;;;5046855;28;20170;-88
2023/08/26 04:53:48;;;;;;;2.17;1.73;;;13.20;99.90;;;;;;5048237;28;20179;-85
2023/08/26 04:56:15;;;;;;;1.43;1.30;;;13.30;99.90;;;;;;5046464;28;20221;-85
2023/08/26 04:58:40;;;;;;;1.33;1.00;;;13.30;99.90;;;;;;5029834;28;20229;-84
2023/08/26 05:01:06;;;;;;;1.60;1.50;;;13.30;99.90;;;;;;5038347;28;20217;-87
2023/08/26 05:03:32;;;;;;;1.87;1.50;;;13.40;99.90;;;;;;5045733;28;20280;-86
2023/08/26 05:05:58;;;;;;;1.37;1.27;;;13.40;99.90;;;;;;5031288;28;20209;-87
2023/08/26 05:08:23;;;;;;;2.33;1.63;;;13.40;99.90;;;;;;5069447;28;20243;-86
2023/08/26 05:10:49;;;;;;;2.53;2.33;;;13.40;99.90;;;;;;5055794;28;20484;-84
2023/08/26 05:13:15;;;;;;;3.07;1.73;;;13.50;99.90;;;;;;5026479;28;20225;-87
2023/08/26 05:15:40;;;;;;;2.83;1.97;;;13.50;99.90;;;;;;5070420;28;20209;-86
2023/08/26 05:18:06;;;;;;;2.00;1.50;;;13.50;99.90;;;;;;5070136;28;20179;-88
2023/08/26 05:20:32;;;;;;;7.93;2.60;;;13.60;99.90;;;;;;5054088;28;20185;-86
2023/08/26 05:22:58;;;;;;;2.70;1.87;;;13.60;99.90;;;;;;5053694;28;20212;-84
2023/08/26 05:25:24;;;;;;;2.60;2.00;;;13.70;99.90;;;;;;5070010;28;20209;-87
2023/08/26 05:27:50;;;;;;;4.27;1.50;;;13.90;99.90;;;;;;5070386;28;20212;-85
2023/08/26 05:30:15;;;;;;;3.00;2.07;;;14.40;99.90;;;;;;5053139;28;20181;-86
2023/08/26 05:32:41;;;;;;;6.47;1.60;;;14.60;99.90;;;;;;5037649;28;20201;-86
2023/08/26 05:35:07;;;;;;;2.10;1.90;;;14.80;99.90;;;;;;5053384;28;20213;-86
2023/08/26 05:37:33;;;;;;;2.00;1.90;;;15.00;99.90;;;;;;5036592;28;20830;-87
2023/08/26 05:39:59;;;;;;;2.20;2.00;;;15.00;99.90;;;;;;5036367;28;20209;-86
2023/08/26 05:42:24;;;;;;;2.90;1.87;;;15.10;99.90;;;;;;5036562;28;20370;-85
2023/08/26 05:44:50;;;;;;;2.43;2.23;;;15.10;99.90;;;;;;5071407;28;20173;-85
2023/08/26 05:47:16;;;;;;;2.43;1.63;;;15.20;99.90;;;;;;5069980;28;20205;-87
2023/08/26 05:49:41;;;;;;;2.57;2.37;;;15.30;99.90;;;;;;5069615;28;20232;-86
2023/08/26 05:52:07;;;;;;;3.10;2.23;;;15.60;99.90;;;;;;5053088;28;20217;-86
2023/08/26 05:54:33;;;;;;;5.67;2.50;;;16.30;99.90;;;;;;5069871;28;20205;-87
2023/08/26 05:56:59;;;;;;;6.47;2.53;;;17.60;99.90;;;;;;5069902;28;20219;-88
2023/08/26 05:59:25;;;;;;;3.70;3.10;;;19.20;99.90;;;;;;5069765;28;20550;-85
2023/08/26 06:01:50;;;;;;;2.80;2.47;;;20.40;99.90;;;;;;5052673;28;20582;-85
2023/08/26 06:04:16;;;;;;;4.70;2.00;;;19.60;99.90;;;;;;5070355;28;20221;-85
2023/08/26 06:06:42;;;;;;;2.13;2.00;;;18.70;99.90;;;;;;5052929;28;20794;-87
2023/08/26 06:09:09;;;;;;;4.43;1.63;;;18.10;99.90;;;;;;5052415;28;20795;-87
2023/08/26 06:11:35;;;;;;;2.03;1.80;;;17.80;99.90;;;;;;5060338;28;20294;-85
2023/08/26 06:14:01;;;;;;;2.67;1.90;;;18.00;99.90;;;;;;5016246;28;20674;-86
2023/08/26 06:16:26;;;;;;;4.00;2.37;;;18.60;99.90;;;;;;5032534;28;20325;-85
2023/08/26 06:18:52;;;;;;;4.53;2.13;;;18.70;99.90;;;;;;5048261;28;20220;-89
2023/08/26 06:21:18;;;;;;;2.73;2.17;;;19.10;99.90;;;;;;5049610;28;20178;-85
2023/08/26 06:23:44;;;;;;;2.70;2.20;;;18.80;99.90;;;;;;5032963;28;20246;-87
2023/08/26 06:26:09;;;;;;;2.07;1.93;;;18.60;99.90;;;;;;5032350;28;20218;-87
2023/08/26 06:28:35;;;;;;;3.10;2.43;;;18.50;99.90;;;;;;5032442;28;20827;-85
2023/08/26 06:31:02;;;;;;;4.93;2.90;;;18.30;99.90;;;;;;5016330;28;20214;-88
2023/08/26 06:33:28;;;;;;;4.47;2.37;;;18.00;99.90;;;;;;5032055;28;20221;-87
2023/08/26 06:35:53;;;;;;;3.00;2.40;;;17.80;99.90;;;;;;5033333;28;20376;-87
2023/08/26 06:38:19;;;;;;;8.17;2.77;;;17.60;99.90;;;;;;5031956;28;20217;-87
2023/08/26 06:40:56;;;;;;;2.67;2.17;;;17.60;99.90;;;;;;5048664;28;20217;-85
2023/08/26 06:43:22;;;;;;;5.73;2.80;;;17.60;99.90;;;;;;5015815;28;20745;-86
2023/08/26 06:45:48;;;;;;;3.27;2.23;;;17.50;99.90;;;;;;5015949;28;20284;-87
2023/08/26 06:48:14;;;;;;;3.47;2.73;;;17.60;99.90;;;;;;5015517;28;20833;-87
2023/08/26 06:50:40;;;;;;;4.30;2.93;;;17.90;99.90;;;;;;5032915;28;20178;-87
2023/08/26 06:53:06;;;;;;;3.87;2.77;;;18.80;99.90;;;;;;5031780;28;20221;-86
2023/08/26 06:55:32;;;;;;;4.93;3.20;;;19.60;99.90;;;;;;5015527;28;20217;-87
2023/08/26 06:57:59;;;;;;;3.30;2.63;;;19.60;99.90;;;;;;5050005;28;20226;-88
2023/08/26 07:00:24;;;;;;;4.10;2.90;;;19.30;99.90;;;;;;5032142;28;20542;-88
2023/08/26 07:02:50;;;;;;;3.60;2.57;;;19.30;99.90;;;;;;5015947;28;20188;-88
2023/08/26 07:05:16;;;;;;;4.40;3.10;;;20.40;99.90;;;;;;5048621;28;20237;-88
2023/08/26 07:07:41;;;;;;;5.97;2.97;;;22.00;99.90;;;;;;5031842;28;20218;-85
2023/08/26 07:10:07;;;;;;;3.80;2.97;;;23.70;99.90;;;;;;5048037;28;20685;-89
2023/08/26 07:12:33;;;;;;;4.40;2.70;;;24.40;99.90;;;;;;5032416;28;20217;-87
2023/08/26 07:14:59;;;;;;;4.77;3.03;;;24.60;99.90;;;;;;5052286;28;20228;-87
2023/08/26 07:17:25;;;;;;;3.77;2.73;;;24.70;99.90;;;;;;5051374;28;20745;-88
2023/08/26 07:19:50;;;;;;;6.83;3.30;;;23.70;99.90;;;;;;5068959;28;20205;-85
2023/08/26 07:22:16;;;;;;;4.50;3.03;;;23.20;99.90;;;;;;5067461;28;20216;-84
2023/08/26 07:24:42;;;;;;;4.60;3.17;;;22.50;99.90;;;;;;5066570;28;20270;-84
2023/08/26 07:27:08;;;;;;;3.77;2.93;;;22.00;99.90;;;;;;5067828;28;20181;-84
2023/08/26 07:29:34;;;;;;;4.60;3.50;;;22.40;99.90;;;;;;5032648;28;20576;-84
2023/08/26 07:32:00;;;;;;;5.97;3.03;;;22.40;99.90;;;;;;5067650;28;20225;-83
2023/08/26 07:34:26;;;;;;;5.40;2.70;;;21.70;99.90;;;;;;5049529;28;20205;-84
2023/08/26 07:36:52;;;;;;;5.80;3.47;;;20.80;99.90;;;;;;5034633;28;20879;-88
2023/08/26 07:39:18;;;;;;;4.53;2.90;;;20.50;99.90;;;;;;5050940;28;20180;-86
2023/08/26 07:41:44;;;;;;;5.00;3.50;;;20.20;99.90;;;;;;5034947;28;20189;-86
2023/08/26 07:44:10;;;;;;;3.40;3.03;;;19.90;99.90;;;;;;5051027;28;20209;-84
2023/08/26 07:46:35;;;;;;;3.60;2.77;;;19.70;99.90;;;;;;5050880;28;20209;-87
2023/08/26 07:49:01;;;;;;;3.20;2.90;;;19.50;99.90;;;;;;5050701;28;20213;-86
2023/08/26 07:51:27;;;;;;;3.77;3.00;;;19.20;99.90;;;;;;5034084;28;20634;-86
2023/08/26 07:53:52;;;;;;;4.33;3.43;;;19.20;99.90;;;;;;5051539;28;20184;-86
2023/08/26 07:56:18;;;;;;;5.57;3.30;;;19.30;99.90;;;;;;5067669;28;20209;-86
2023/08/26 07:58:44;;;;;;;8.70;3.73;;;20.10;99.90;;;;;;5050657;28;20205;-87
2023/08/26 08:01:10;;;;;;;7.87;3.57;;;21.00;99.90;;;;;;5033802;28;20291;-84
2023/08/26 08:03:36;;;;;;;5.63;3.30;;;22.00;99.90;;;;;;5068351;28;20385;-88
2023/08/26 08:06:02;;;;;;;4.87;3.20;;;22.50;99.90;;;;;;5067674;28;20324;-88
2023/08/26 08:08:27;;;;;;;3.07;2.80;;;22.40;99.90;;;;;;5050342;28;20219;-86
2023/08/26 08:10:53;;;;;;;4.20;2.67;;;22.10;99.90;;;;;;5033651;28;20674;-87
2023/08/26 08:13:19;;;;;;;5.43;3.03;;;21.90;99.90;;;;;;5049835;28;20544;-86
2023/08/26 08:15:45;;;;;;;3.93;3.20;;;21.30;99.90;;;;;;5033605;28;20692;-87
2023/08/26 08:18:11;;;;;;;4.87;3.67;;;21.30;99.90;;;;;;5050300;28;20212;-87
2023/08/26 08:20:37;;;;;;;3.00;2.30;;;21.80;99.90;;;;;;5050427;28;20209;-87
2023/08/26 08:23:03;;;;;;;2.80;2.37;;;21.90;99.90;;;;;;5049781;28;20225;-86
2023/08/26 08:25:29;;;;;;;4.37;2.53;;;21.90;99.90;;;;;;5049567;28;20209;-85
2023/08/26 08:27:55;;;;;;;2.95;2.42;;;22.10;99.90;;;;;;5068099;28;20223;-87
2023/08/26 08:30:21;;;;;;;4.30;1.85;;;23.50;99.90;;;;;;5049934;28;20173;-88
2023/08/26 08:32:47;;;;;;;4.10;2.10;;;24.40;99.90;;;;;;5067250;28;20654;-85
2023/08/26 08:35:12;;;;;;;5.50;2.00;;;25.40;99.90;;;;;;5050206;28;20248;-86
2023/08/26 08:37:38;;;;;;;2.00;1.80;;;26.80;99.90;;;;;;5049672;28;20669;-86
2023/08/26 08:40:05;;;;;;;2.40;1.50;;;25.50;99.90;;;;;;5033221;28;20208;-87
2023/08/26 08:42:36;;;;;;;2.55;1.38;;;24.80;99.90;;;;;;5049380;28;20866;-85
2023/08/26 08:45:03;;;;;;;2.33;1.40;;;25.40;99.90;;;;;;5068486;28;20639;-89
2023/08/26 08:47:30;;;;;;;3.70;1.67;;;26.60;99.90;;;;;;5067671;28;20229;-88
2023/08/26 08:49:57;;;;;;;4.25;1.90;;;27.50;99.90;;;;;;5049959;28;20213;-85
2023/08/26 08:52:25;;;;;;;2.30;1.35;;;27.70;99.90;;;;;;5067456;28;20342;-85
2023/08/26 08:54:51;;;;;;;1.67;1.30;;;27.40;99.90;;;;;;5067756;28;20209;-86
2023/08/26 08:57:23;;;;;;;2.38;0.93;;;28.00;99.90;;;;;;5067330;28;20390;-85
2023/08/26 08:59:49;;;;;;;3.28;1.05;;;27.50;99.90;;;;;;5068419;28;20233;-83
2023/08/26 09:02:15;;;;;;;0.90;0.70;;;28.50;99.90;;;;;;5049602;28;20212;-85
2023/08/26 09:04:44;;;;;;;3.33;1.15;;;28.90;99.90;;;;;;5066265;28;20299;-85
2023/08/26 09:07:13;;;;;;;1.75;0.70;;;29.40;99.90;;;;;;5049686;28;20601;-86
2023/08/26 09:09:39;;;;;;;0.50;0.50;;;30.60;99.90;;;;;;5067219;28;20266;-85
2023/08/26 09:12:06;;;;;;;1.88;0.50;;;29.00;99.90;;;;;;5049783;28;20287;-82
2023/08/26 09:14:32;;;;;;;3.03;0.70;;;29.00;99.90;;;;;;5047894;28;20213;-84
2023/08/26 09:17:00;;;;;;;2.03;0.77;;;29.00;99.90;;;;;;5029404;28;20236;-85
2023/08/26 09:19:26;;;;;;;0.70;0.70;;;28.20;99.90;;;;;;5040498;28;20240;-83
2023/08/26 09:21:53;;;;;;;0.73;0.65;;;29.30;99.90;;;;;;5049216;28;20270;-83
2023/08/26 09:24:20;;;;;;;2.85;1.08;;;28.90;99.90;;;;;;5067532;28;20297;-86
2023/08/26 09:26:59;;;;;;;2.60;0.82;;;28.00;99.90;;;;;;5067476;28;20169;-82
2023/08/26 09:29:26;;;;;;;0.93;0.93;;;28.00;99.90;;;;;;5067228;28;20288;-85
2023/08/26 09:31:56;;;;;;;1.60;1.00;;;26.20;99.90;;;;;;5049214;28;20218;-87
2023/08/26 09:34:28;;;;;;;1.00;0.60;;;25.90;99.90;;;;;;5066930;28;20744;-85
2023/08/26 09:36:54;;;;;;;1.10;1.02;;;24.50;99.90;;;;;;5049397;28;20217;-87
2023/08/26 09:39:21;;;;;;;0.70;0.60;;;23.90;99.90;;;;;;5066980;28;20190;-84
2023/08/26 09:41:47;;;;;;;2.25;0.80;;;22.90;99.90;;;;;;5067582;28;20272;-85
2023/08/26 09:44:16;;;;;;;0.85;0.70;;;22.80;99.90;;;;;;5049458;28;20224;-87
2023/08/26 09:46:43;;;;;;;1.63;1.48;;;22.20;99.90;;;;;;5066917;28;20205;-87
2023/08/26 09:49:18;;;;;;;1.50;1.40;;;22.00;99.90;;;;;;5032540;28;20209;-86
2023/08/26 09:51:54;;;;;;;2.13;1.50;;;21.70;99.90;;;;;;5067044;28;20248;-87
2023/08/26 09:54:21;;;;;;;3.30;2.03;;;21.90;99.90;;;;;;5069732;28;20173;-88
2023/08/26 09:56:48;;;;;;;2.25;2.05;;;22.00;99.90;;;;;;5036452;28;20197;-84
2023/08/26 09:59:15;;;;;;;6.28;1.80;;;21.60;99.90;;;;;;5070339;28;20248;-86
2023/08/26 10:01:45;;;;;;;4.32;2.00;;;21.30;99.90;;;;;;5070137;28;20708;-87
2023/08/26 10:04:24;;;;;;;2.92;1.92;;;21.50;99.90;;;;;;5070874;28;20229;-86
2023/08/26 10:06:59;;;;;;;2.20;2.00;;;22.10;99.90;;;;;;5052288;28;20213;-85
2023/08/26 10:09:33;;;;;;;5.90;2.47;;;21.90;99.90;;;;;;5052768;28;20752;-85
2023/08/26 10:12:04;;;;;;;2.63;2.43;;;21.60;99.90;;;;;;5053133;28;20615;-88
2023/08/26 10:14:33;;;;;;;2.83;2.10;;;21.60;99.90;;;;;;5052683;28;20274;-87
2023/08/26 10:17:02;;;;;;;3.60;2.70;;;21.10;99.90;;;;;;5052523;28;20264;-87
2023/08/26 10:19:29;;;;;;;3.22;2.45;;;21.20;99.90;;;;;;5070240;28;20219;-83
2023/08/26 10:21:56;;;;;;;2.43;2.17;;;21.20;99.90;;;;;;5052518;28;20685;-86
2023/08/26 10:24:22;;;;;;;3.13;1.80;;;21.30;99.90;;;;;;5052124;28;20740;-86
2023/08/26 10:26:48;;;;;;;3.10;2.20;;;21.70;99.90;;;;;;5052651;28;20272;-86
2023/08/26 10:29:15;;;;;;;2.30;1.40;;;21.80;99.90;;;;;;5035710;28;20670;-87
2023/08/26 10:31:43;;;;;;;2.08;1.30;;;21.90;99.90;;;;;;5035632;28;20216;-88
2023/08/26 10:34:09;;;;;;;2.40;1.03;;;22.70;99.90;;;;;;5035957;28;20217;-85
2023/08/26 10:36:36;;;;;;;0.68;0.68;;;23.70;99.90;;;;;;5051710;28;20205;-87
2023/08/26 10:39:02;;;;;;;1.30;1.20;;;24.10;99.90;;;;;;5035913;28;20259;-84
2023/08/26 10:41:29;;;;;;;3.85;1.10;;;23.90;99.90;;;;;;5052483;28;20213;-87
2023/08/26 10:43:58;;;;;;;1.27;1.17;;;23.30;99.90;;;;;;5052132;28;20217;-86
2023/08/26 10:46:37;;;;;;;1.27;1.17;;;23.50;99.90;;;;;;5058210;28;20220;-86
2023/08/26 10:49:04;;;;;;;2.30;1.05;;;23.30;99.90;;;;;;5049491;28;20313;-87
2023/08/26 10:51:31;;;;;;;2.55;1.10;;;23.30;99.90;;;;;;5049597;28;20218;-85
2023/08/26 10:54:04;;;;;;;1.23;0.90;;;23.70;99.90;;;;;;5032783;28;20206;-87
2023/08/26 10:56:34;;;;;;;0.90;0.88;;;24.90;99.90;;;;;;5035554;28;20213;-84
2023/08/26 10:59:02;;;;;;;1.27;1.10;;;23.70;99.90;;;;;;5069439;28;20260;-88
2023/08/26 11:01:33;;;;;;;0.85;0.85;;;22.70;99.90;;;;;;5068637;28;20298;-86
2023/08/26 11:03:59;;;;;;;1.25;1.00;;;22.70;99.90;;;;;;5068805;28;20209;-87
2023/08/26 11:06:25;;;;;;;1.30;1.17;;;22.80;99.90;;;;;;5035317;28;20221;-88
2023/08/26 11:08:56;;;;;;;1.38;1.10;;;22.60;99.90;;;;;;5068746;28;20181;-86
2023/08/26 11:11:23;;;;;;;1.77;1.00;;;22.60;99.90;;;;;;5034557;28;20213;-86
2023/08/26 11:13:49;;;;;;;4.15;1.23;;;22.90;99.90;;;;;;5050966;28;20279;-87
2023/08/26 11:16:15;;;;;;;1.98;1.67;;;22.90;99.90;;;;;;5069141;28;20221;-85
2023/08/26 11:18:44;;;;;;;1.63;1.05;;;23.60;99.90;;;;;;5068639;28;20213;-87
2023/08/26 11:21:12;;;;;;;2.88;1.20;;;23.90;99.90;;;;;;5068707;28;20184;-86
2023/08/26 11:23:38;;;;;;;1.38;1.27;;;23.70;99.90;;;;;;5085263;28;20237;-85
2023/08/26 11:26:07;;;;;;;2.13;1.30;;;24.00;99.90;;;;;;5068731;28;20213;-87
2023/08/26 11:28:33;;;;;;;0.70;0.70;;;24.10;99.90;;;;;;5051315;28;20292;-87
2023/08/26 11:31:00;;;;;;;2.65;0.75;;;24.80;99.90;;;;;;5068755;28;20606;-87
2023/08/26 11:33:28;;;;;;;1.55;0.73;;;25.10;99.90;;;;;;5050662;28;20247;-84
2023/08/26 11:35:53;;;;;;;1.88;1.05;;;24.50;99.90;;;;;;5051365;28;20165;-88
2023/08/26 11:38:20;;;;;;;2.20;1.15;;;23.50;99.90;;;;;;5067557;28;20216;-88
2023/08/26 11:40:47;;;;;;;1.27;1.00;;;23.70;99.90;;;;;;5050711;28;20292;-86
2023/08/26 11:43:14;;;;;;;1.45;1.02;;;24.20;99.90;;;;;;5068476;28;20221;-85
2023/08/26 11:45:43;;;;;;;0.85;0.85;;;23.70;99.90;;;;;;5050655;28;20216;-87
2023/08/26 11:48:12;;;;;;;1.33;0.90;;;23.80;99.90;;;;;;5068171;28;20169;-87
2023/08/26 11:50:39;;;;;;;0.90;0.90;;;22.90;99.90;;;;;;5051458;28;20683;-87
2023/08/26 11:53:05;;;;;;;2.60;0.80;;;22.70;99.90;;;;;;5033999;28;20221;-86
2023/08/26 11:55:32;;;;;;;0.82;0.82;;;22.20;99.90;;;;;;5050533;28;20264;-87
2023/08/26 11:58:00;;;;;;;1.67;1.00;;;22.30;99.90;;;;;;5050476;28;20685;-87
2023/08/26 12:00:26;;;;;;;1.15;1.05;;;22.50;99.90;;;;;;5068412;28;20216;-88
2023/08/26 12:02:55;;;;;;;1.10;1.00;;;22.30;99.90;;;;;;5067683;28;20759;-86
2023/08/26 12:05:21;;;;;;;4.35;1.38;;;22.90;99.90;;;;;;5068344;28;20830;-85
2023/08/26 12:07:48;;;;;;;2.40;0.85;;;23.30;99.90;;;;;;5050191;28;20213;-87
2023/08/26 12:10:16;;;;;;;3.60;1.02;;;23.00;99.90;;;;;;5050525;28;20233;-88
2023/08/26 12:12:42;;;;;;;1.20;0.90;;;23.60;99.90;;;;;;5049958;28;20217;-84
2023/08/26 12:15:10;;;;;;;1.23;1.05;;;23.30;99.90;;;;;;5050294;28;20189;-87
2023/08/26 12:17:51;;;;;;;1.08;0.85;;;23.20;99.90;;;;;;5066687;28;20181;-87
2023/08/26 12:20:23;;;;;;;0.70;0.60;;;23.00;99.90;;;;;;5067131;28;20351;-86
2023/08/26 12:22:49;;;;;;;1.15;1.05;;;22.60;99.90;;;;;;5066976;28;20220;-88
2023/08/26 12:25:27;;;;;;;3.00;1.10;;;23.10;99.90;;;;;;5067060;28;20216;-87
2023/08/26 12:28:13;;;;;;;4.43;1.35;;;22.90;99.90;;;;;;5100184;28;20220;-88
2023/08/26 12:30:42;;;;;;;1.25;1.17;;;23.20;99.90;;;;;;5066477;28;20322;-83
2023/08/26 12:33:09;;;;;;;3.80;0.90;;;23.10;99.90;;;;;;5067846;28;20211;-89
2023/08/26 12:35:36;;;;;;;1.20;0.90;;;22.70;99.90;;;;;;5068538;28;20189;-84
2023/08/26 12:38:02;;;;;;;1.45;1.00;;;22.40;99.90;;;;;;5050444;28;20212;-87
2023/08/26 12:40:32;;;;;;;2.20;1.42;;;22.10;99.90;;;;;;5049741;28;20233;-86
2023/08/26 12:42:59;;;;;;;1.73;1.58;;;21.70;99.90;;;;;;5066399;28;20278;-87
2023/08/26 12:45:25;;;;;;;2.33;1.50;;;21.40;99.90;;;;;;5067468;28;22448;-86